Time;durP1;ratioP1;P1;durP2;ratioP2;P2;SDS_P1;SDS_P2;PMS_P1;PMS_P2;Temp;Humidity;BMP_temperature;BMP_pressure;BME280_temperature;BME280_humidity;BME280_pressure;Samples;Min_cycle;Max_cycle;Signal;HPM_P1;HPM_P2
2022/05/16 00:00:08;;;;;;;5.37;4.10;;;18.50;61.70;;;;;;4986473;28;20467;-49
2022/05/16 00:02:34;;;;;;;6.87;4.60;;;18.50;61.70;;;;;;4985208;28;21052;-49
2022/05/16 00:05:02;;;;;;;5.00;3.77;;;18.40;61.60;;;;;;4982816;28;20468;-49
2022/05/16 00:07:29;;;;;;;4.60;4.20;;;18.40;61.70;;;;;;4982957;28;20506;-49
2022/05/16 00:09:56;;;;;;;5.10;4.47;;;18.40;61.80;;;;;;4983825;28;20488;-49
2022/05/16 00:12:22;;;;;;;5.50;4.57;;;18.30;61.80;;;;;;4985300;28;20471;-49
2022/05/16 00:14:49;;;;;;;5.37;4.83;;;18.30;62.00;;;;;;4967779;28;20508;-49
2022/05/16 00:17:16;;;;;;;5.47;4.73;;;18.30;61.90;;;;;;4983598;28;20462;-49
2022/05/16 00:19:43;;;;;;;5.30;4.80;;;18.30;62.00;;;;;;4985312;28;20523;-49
2022/05/16 00:22:10;;;;;;;4.93;4.53;;;18.30;62.10;;;;;;4982733;28;20549;-49
2022/05/16 00:24:42;;;;;;;5.40;4.57;;;18.20;62.30;;;;;;4964734;28;20887;-49
2022/05/16 00:27:10;;;;;;;5.40;4.03;;;18.20;62.60;;;;;;4985893;28;20566;-49
2022/05/16 00:29:38;;;;;;;5.70;5.07;;;18.10;62.70;;;;;;4988938;28;20477;-49
2022/05/16 00:32:06;;;;;;;6.20;4.50;;;18.20;62.60;;;;;;4987945;28;20525;-49
2022/05/16 00:34:32;;;;;;;5.60;4.57;;;18.10;62.60;;;;;;4989194;28;21038;-49
2022/05/16 00:36:59;;;;;;;5.23;4.33;;;18.10;62.60;;;;;;4989286;28;20495;-48
2022/05/16 00:39:26;;;;;;;5.20;4.70;;;18.00;62.80;;;;;;4990105;28;20484;-49
2022/05/16 00:41:53;;;;;;;5.40;4.60;;;18.00;63.00;;;;;;4975567;28;20500;-49
2022/05/16 00:44:21;;;;;;;5.57;5.07;;;18.00;63.10;;;;;;4992922;28;21042;-50
2022/05/16 00:46:48;;;;;;;4.00;3.70;;;17.90;63.10;;;;;;4985313;28;20508;-49
2022/05/16 00:49:27;;;;;;;5.43;4.67;;;17.90;63.30;;;;;;4988495;28;20839;-49
2022/05/16 00:52:15;;;;;;;4.87;4.40;;;17.90;63.40;;;;;;4989846;28;20464;-49
2022/05/16 00:54:49;;;;;;;4.50;4.10;;;17.90;63.60;;;;;;4989564;28;21039;-49
2022/05/16 00:57:24;;;;;;;4.90;4.50;;;17.90;63.60;;;;;;4992893;28;20544;-48
2022/05/16 01:00:09;;;;;;;5.37;4.20;;;17.80;63.70;;;;;;4970750;28;20469;-49
2022/05/16 01:05:25;;;;;;;6.53;4.93;;;17.80;63.70;;;;;;4990937;28;20512;-49
2022/05/16 01:07:52;;;;;;;5.20;4.30;;;17.70;63.80;;;;;;4986698;28;20501;-49
2022/05/16 01:10:21;;;;;;;5.17;4.57;;;17.80;63.80;;;;;;4986968;28;21239;-50
2022/05/16 01:12:50;;;;;;;6.27;4.80;;;17.70;63.90;;;;;;4971128;28;20527;-50
2022/05/16 01:15:30;;;;;;;4.90;4.40;;;17.70;64.00;;;;;;4966542;28;20763;-49
2022/05/16 01:17:57;;;;;;;4.43;4.00;;;17.70;64.10;;;;;;4988663;28;20961;-49
2022/05/16 01:20:42;;;;;;;9.07;4.80;;;17.70;64.30;;;;;;4966244;28;20470;-49
2022/05/16 01:23:11;;;;;;;7.13;4.30;;;17.60;64.10;;;;;;4985625;28;20549;-50
2022/05/16 01:25:38;;;;;;;3.63;3.20;;;17.60;64.20;;;;;;4965870;28;20480;-49
2022/05/16 01:28:05;;;;;;;6.70;4.43;;;17.60;64.30;;;;;;4988579;28;20938;-49
2022/05/16 01:30:35;;;;;;;4.20;3.80;;;17.60;64.40;;;;;;4986683;28;20459;-48
2022/05/16 01:33:02;;;;;;;7.57;4.60;;;17.60;64.40;;;;;;4986368;28;20466;-49
2022/05/16 01:35:31;;;;;;;4.90;4.37;;;17.70;64.10;;;;;;4984687;28;20501;-50
2022/05/16 01:40:47;;;;;;;5.57;4.33;;;17.70;64.10;;;;;;4986981;28;20465;-50
2022/05/16 01:43:15;;;;;;;5.53;4.00;;;17.70;64.20;;;;;;4991681;28;20557;-50
2022/05/16 01:45:43;;;;;;;4.80;4.40;;;17.70;64.10;;;;;;4987391;28;20520;-49
2022/05/16 01:48:12;;;;;;;6.80;3.93;;;17.60;64.20;;;;;;4986451;28;20475;-49
2022/05/16 01:50:40;;;;;;;4.33;3.93;;;17.60;64.20;;;;;;4987032;28;20458;-49
2022/05/16 01:53:07;;;;;;;7.27;4.10;;;17.60;64.20;;;;;;4984141;28;20469;-49
2022/05/16 01:55:34;;;;;;;4.80;3.73;;;17.60;64.20;;;;;;4984322;28;20494;-49
2022/05/16 01:58:01;;;;;;;6.83;4.27;;;17.50;64.30;;;;;;4988478;28;20479;-50
2022/05/16 02:00:28;;;;;;;4.10;3.33;;;17.50;64.40;;;;;;4956478;28;20927;-49
2022/05/16 02:02:54;;;;;;;6.60;4.50;;;17.50;64.40;;;;;;4984545;28;20839;-49
2022/05/16 02:05:23;;;;;;;4.07;3.77;;;17.50;64.20;;;;;;4988711;28;20467;-49
2022/05/16 02:07:50;;;;;;;5.03;3.90;;;17.60;63.90;;;;;;4980964;28;20543;-49
2022/05/16 02:10:22;;;;;;;5.50;4.40;;;17.50;64.10;;;;;;4982865;28;20728;-49
2022/05/16 02:12:50;;;;;;;3.77;3.47;;;17.50;64.20;;;;;;4984791;28;21007;-50
2022/05/16 02:15:20;;;;;;;4.90;4.10;;;17.50;64.30;;;;;;4982605;28;20576;-49
2022/05/16 02:17:47;;;;;;;5.57;3.43;;;17.50;64.60;;;;;;4983308;28;20497;-49
2022/05/16 02:20:14;;;;;;;6.03;3.90;;;17.50;64.60;;;;;;4985900;28;20457;-49
2022/05/16 02:25:27;;;;;;;4.87;3.80;;;17.50;64.60;;;;;;4987127;28;20476;-49
2022/05/16 02:27:54;;;;;;;4.80;4.27;;;17.50;64.80;;;;;;4983380;28;20507;-49
2022/05/16 02:30:22;;;;;;;6.70;4.40;;;17.50;64.90;;;;;;4979844;28;20584;-44
2022/05/16 02:32:50;;;;;;;6.43;4.27;;;17.50;64.70;;;;;;4981029;28;20510;-44
2022/05/16 02:35:17;;;;;;;5.53;4.57;;;17.50;64.60;;;;;;4970609;28;20844;-44
2022/05/16 02:37:44;;;;;;;4.93;4.40;;;17.60;64.30;;;;;;4959329;28;20536;-44
2022/05/16 02:40:11;;;;;;;6.10;4.63;;;17.60;64.20;;;;;;4977982;28;20904;-43
2022/05/16 02:42:38;;;;;;;8.83;4.23;;;17.60;64.20;;;;;;4979685;28;20473;-44
2022/05/16 02:45:06;;;;;;;4.83;3.50;;;17.50;64.50;;;;;;4980780;28;20526;-46
2022/05/16 02:47:35;;;;;;;6.27;4.67;;;17.50;64.70;;;;;;4968964;28;20465;-47
2022/05/16 02:50:04;;;;;;;5.20;4.27;;;17.50;64.90;;;;;;4982275;28;20467;-46
2022/05/16 02:52:31;;;;;;;7.07;4.23;;;17.50;65.20;;;;;;4979785;28;20481;-45
2022/05/16 02:55:00;;;;;;;5.20;4.70;;;17.50;65.10;;;;;;4972470;28;20528;-46
2022/05/16 02:57:29;;;;;;;5.73;4.27;;;17.50;65.00;;;;;;4982339;28;20521;-46
2022/05/16 02:59:56;;;;;;;4.90;4.40;;;17.50;65.00;;;;;;4961091;28;20508;-46
2022/05/16 03:02:23;;;;;;;4.80;3.73;;;17.50;64.70;;;;;;4980079;28;20889;-46
2022/05/16 03:04:50;;;;;;;7.43;4.60;;;17.50;65.10;;;;;;4981844;28;20475;-46
2022/05/16 03:07:18;;;;;;;6.13;4.10;;;17.50;65.30;;;;;;4963665;28;20492;-46
2022/05/16 03:09:46;;;;;;;4.50;4.10;;;17.50;65.40;;;;;;4976302;28;20611;-46
2022/05/16 03:12:13;;;;;;;5.97;4.40;;;17.50;65.10;;;;;;4980806;28;20476;-46
2022/05/16 03:14:40;;;;;;;6.20;4.40;;;17.50;65.20;;;;;;4980961;28;20500;-46
2022/05/16 03:17:07;;;;;;;6.70;4.27;;;17.50;65.20;;;;;;4980372;28;20998;-46
2022/05/16 03:19:35;;;;;;;7.43;4.70;;;17.50;65.40;;;;;;4979481;28;20525;-46
2022/05/16 03:22:06;;;;;;;7.97;4.43;;;17.50;65.40;;;;;;4982841;28;20465;-47
2022/05/16 03:24:34;;;;;;;9.03;4.90;;;17.50;65.60;;;;;;4978949;28;20476;-45
2022/05/16 03:27:01;;;;;;;5.23;4.30;;;17.40;66.10;;;;;;4978898;28;20466;-46
2022/05/16 03:29:28;;;;;;;4.60;4.03;;;17.40;66.20;;;;;;4975572;28;20959;-46
2022/05/16 03:31:55;;;;;;;4.80;3.97;;;17.50;66.40;;;;;;4980100;28;20483;-46
2022/05/16 03:34:22;;;;;;;6.90;4.77;;;17.40;66.20;;;;;;4981197;28;20492;-46
2022/05/16 03:36:49;;;;;;;4.47;4.10;;;17.40;66.40;;;;;;4977227;28;20469;-46
2022/05/16 03:42:07;;;;;;;7.27;4.30;;;17.40;66.50;;;;;;4979881;28;20846;-48
2022/05/16 03:44:34;;;;;;;4.50;4.10;;;17.30;66.50;;;;;;4961567;28;20480;-46
2022/05/16 03:47:00;;;;;;;5.93;5.10;;;17.30;66.50;;;;;;4981260;28;20475;-47
2022/05/16 03:49:29;;;;;;;5.40;4.00;;;17.40;66.20;;;;;;4973520;28;20540;-46
2022/05/16 03:51:56;;;;;;;6.77;4.40;;;17.40;66.30;;;;;;4976861;28;20508;-46
2022/05/16 03:54:23;;;;;;;4.83;4.27;;;17.40;66.50;;;;;;4976867;28;20501;-45
2022/05/16 03:56:50;;;;;;;5.50;4.73;;;17.40;66.40;;;;;;4980150;28;20853;-46
2022/05/16 03:59:17;;;;;;;6.43;4.57;;;17.40;66.50;;;;;;4974511;28;20501;-48
2022/05/16 04:01:44;;;;;;;6.53;4.90;;;17.40;66.60;;;;;;4969026;28;20555;-46
2022/05/16 04:04:12;;;;;;;6.67;4.70;;;17.40;66.70;;;;;;4982117;28;20550;-46
2022/05/16 04:06:38;;;;;;;7.23;5.20;;;17.40;66.70;;;;;;4980086;28;20468;-46
2022/05/16 04:09:05;;;;;;;6.53;4.97;;;17.50;66.90;;;;;;4979980;28;20472;-46
2022/05/16 04:11:34;;;;;;;5.00;4.30;;;17.50;66.50;;;;;;4983495;28;20461;-46
2022/05/16 04:14:01;;;;;;;8.27;4.80;;;17.50;66.50;;;;;;4977090;28;20463;-45
2022/05/16 04:16:28;;;;;;;7.13;5.00;;;17.50;66.70;;;;;;4982088;28;20548;-46
2022/05/16 04:18:55;;;;;;;4.77;4.27;;;17.50;66.70;;;;;;4962389;28;20470;-45
2022/05/16 04:21:22;;;;;;;6.40;4.70;;;17.50;66.70;;;;;;4982185;28;20549;-46
2022/05/16 04:23:49;;;;;;;6.37;4.50;;;17.50;66.80;;;;;;4982761;28;20470;-46
2022/05/16 04:26:16;;;;;;;6.40;4.87;;;17.50;67.00;;;;;;4985773;28;20970;-46
2022/05/16 04:28:43;;;;;;;5.37;4.50;;;17.50;67.10;;;;;;4979695;28;20733;-46
2022/05/16 04:31:09;;;;;;;5.00;4.50;;;17.60;67.10;;;;;;4976381;28;20527;-45
2022/05/16 04:33:36;;;;;;;4.07;3.77;;;17.60;67.00;;;;;;4985423;28;20844;-47
2022/05/16 04:36:03;;;;;;;5.63;3.63;;;17.60;67.00;;;;;;4981843;28;20869;-46
2022/05/16 04:38:30;;;;;;;4.87;4.47;;;17.60;67.00;;;;;;4965298;28;20921;-45
2022/05/16 04:43:43;;;;;;;3.90;3.60;;;17.60;66.80;;;;;;4981099;28;20858;-46
2022/05/16 04:46:10;;;;;;;7.20;4.23;;;17.70;66.80;;;;;;4979999;28;20488;-46
2022/05/16 04:48:36;;;;;;;6.20;5.03;;;17.70;66.90;;;;;;4981784;28;20988;-46
2022/05/16 04:51:03;;;;;;;5.23;4.20;;;17.70;67.00;;;;;;4981575;28;20479;-46
2022/05/16 04:53:30;;;;;;;13.60;5.10;;;17.70;67.10;;;;;;4980350;28;20479;-46
2022/05/16 04:55:58;;;;;;;7.03;4.30;;;17.70;67.30;;;;;;4978096;28;20499;-46
2022/05/16 04:58:25;;;;;;;9.50;4.60;;;17.80;65.20;;;;;;4981880;28;20469;-46
2022/05/16 05:00:52;;;;;;;6.63;4.90;;;17.80;65.20;;;;;;4971644;28;20554;-46
2022/05/16 05:03:18;;;;;;;6.30;4.50;;;17.90;64.90;;;;;;4980502;28;20478;-46
2022/05/16 05:05:45;;;;;;;6.80;5.17;;;18.00;65.10;;;;;;4970075;28;20473;-46
2022/05/16 05:08:12;;;;;;;9.97;4.53;;;18.10;63.80;;;;;;4980074;28;20471;-46
2022/05/16 05:16:19;;;;;;;17.13;4.57;;;18.20;62.60;;;;;;4982561;28;20506;-46
2022/05/16 05:18:46;;;;;;;9.10;4.40;;;18.40;61.80;;;;;;4983593;28;20466;-46
2022/05/16 05:21:13;;;;;;;6.30;5.07;;;18.40;61.70;;;;;;4977060;28;20598;-46
2022/05/16 05:23:40;;;;;;;9.07;5.30;;;18.50;61.70;;;;;;4967504;28;20472;-46
2022/05/16 05:26:09;;;;;;;8.67;4.90;;;18.60;61.50;;;;;;4978551;28;20525;-46
2022/05/16 05:28:37;;;;;;;6.43;4.17;;;18.60;61.20;;;;;;4965316;28;20923;-46
2022/05/16 05:31:04;;;;;;;6.77;4.80;;;18.60;61.00;;;;;;4973488;28;20500;-46
2022/05/16 05:33:31;;;;;;;5.70;4.30;;;18.70;60.80;;;;;;4981668;28;20592;-46
2022/05/16 05:35:58;;;;;;;10.67;4.80;;;18.70;60.80;;;;;;4981037;28;21512;-45
2022/05/16 05:38:24;;;;;;;5.80;4.17;;;18.80;60.80;;;;;;4964560;28;20452;-45
2022/05/16 05:40:51;;;;;;;5.63;4.33;;;18.90;60.50;;;;;;4973773;28;20458;-47
2022/05/16 05:43:18;;;;;;;9.20;4.97;;;18.90;60.30;;;;;;4966231;28;20471;-45
2022/05/16 05:45:45;;;;;;;8.43;4.50;;;18.90;60.20;;;;;;4981740;28;20450;-46
2022/05/16 05:48:12;;;;;;;5.83;4.43;;;18.90;60.10;;;;;;4981881;28;20506;-46
2022/05/16 05:50:38;;;;;;;5.33;3.90;;;19.00;60.60;;;;;;4971859;28;20461;-46
2022/05/16 05:53:05;;;;;;;11.70;4.00;;;19.00;61.10;;;;;;4962082;28;20552;-46
2022/05/16 05:55:32;;;;;;;8.13;4.80;;;19.00;62.00;;;;;;4962810;28;20492;-46
2022/05/16 05:57:59;;;;;;;8.77;4.43;;;19.00;62.40;;;;;;4978215;28;20542;-46
2022/05/16 06:00:26;;;;;;;4.57;4.17;;;19.00;62.80;;;;;;4980307;28;20582;-46
2022/05/16 06:02:53;;;;;;;6.83;4.53;;;19.00;62.20;;;;;;4980899;28;20484;-46
2022/05/16 06:05:21;;;;;;;11.90;5.07;;;19.10;62.00;;;;;;4982123;28;20457;-46
2022/05/16 06:07:48;;;;;;;6.10;4.37;;;19.10;61.20;;;;;;4977644;28;20577;-46
2022/05/16 06:10:15;;;;;;;7.20;4.93;;;19.10;60.70;;;;;;4978771;28;20453;-45
2022/05/16 06:12:43;;;;;;;5.47;4.87;;;19.10;60.40;;;;;;4982334;28;20970;-47
2022/05/16 06:15:12;;;;;;;8.87;5.53;;;19.20;60.10;;;;;;4979979;28;20507;-46
2022/05/16 06:17:40;;;;;;;9.50;4.57;;;19.20;60.20;;;;;;4964200;28;21036;-46
2022/05/16 06:20:09;;;;;;;10.23;4.97;;;19.20;60.40;;;;;;4979013;28;21445;-47
2022/05/16 06:22:38;;;;;;;5.80;5.30;;;19.20;61.10;;;;;;4978208;28;20463;-46
2022/05/16 06:25:31;;;;;;;9.80;5.70;;;19.30;61.60;;;;;;4965690;28;20564;-46
2022/05/16 06:28:02;;;;;;;8.00;4.73;;;19.30;61.60;;;;;;4976732;28;20516;-47
2022/05/16 06:30:30;;;;;;;19.70;5.13;;;19.30;61.40;;;;;;4980077;28;20560;-47
2022/05/16 06:32:57;;;;;;;8.57;5.10;;;19.30;61.20;;;;;;4965451;28;20559;-46
2022/05/16 06:35:24;;;;;;;6.97;5.17;;;19.40;61.00;;;;;;4977993;28;20506;-46
2022/05/16 06:37:51;;;;;;;6.30;4.77;;;19.40;60.40;;;;;;4959457;28;20465;-47
2022/05/16 06:40:20;;;;;;;10.83;5.53;;;19.40;60.30;;;;;;4963041;28;20469;-47
2022/05/16 06:42:47;;;;;;;8.90;4.97;;;19.50;60.10;;;;;;4979338;28;20948;-45
2022/05/16 06:45:17;;;;;;;8.87;5.07;;;19.50;60.20;;;;;;4961779;28;20465;-47
2022/05/16 06:47:45;;;;;;;8.00;4.90;;;19.60;60.20;;;;;;4973236;28;20464;-46
2022/05/16 06:50:12;;;;;;;6.43;4.43;;;19.50;59.90;;;;;;4980914;28;20884;-45
2022/05/16 06:52:40;;;;;;;8.13;5.20;;;19.60;59.80;;;;;;4980730;28;20500;-46
2022/05/16 06:55:08;;;;;;;10.20;5.53;;;19.60;60.00;;;;;;4979076;28;20503;-46
2022/05/16 06:57:35;;;;;;;8.73;5.10;;;19.60;60.20;;;;;;4982585;28;20441;-47
2022/05/16 07:00:04;;;;;;;11.00;4.93;;;19.70;60.10;;;;;;4980193;28;20545;-47
2022/05/16 07:02:31;;;;;;;7.80;4.50;;;19.80;59.80;;;;;;4981260;28;20568;-46
2022/05/16 07:04:58;;;;;;;7.17;4.57;;;19.80;59.50;;;;;;4978133;28;20566;-45
2022/05/16 07:07:25;;;;;;;6.00;4.53;;;19.90;58.70;;;;;;4961171;28;20479;-47
2022/05/16 07:09:52;;;;;;;7.33;4.60;;;19.90;58.20;;;;;;4976332;28;20511;-47
2022/05/16 07:12:19;;;;;;;6.60;4.60;;;20.00;57.80;;;;;;4977442;28;20470;-46
2022/05/16 07:14:47;;;;;;;6.40;4.23;;;20.00;57.70;;;;;;4977606;28;20476;-46
2022/05/16 07:17:14;;;;;;;8.60;4.43;;;20.00;57.60;;;;;;4979404;28;20563;-46
2022/05/16 07:19:41;;;;;;;5.70;4.40;;;20.00;57.60;;;;;;4965460;28;20453;-46
2022/05/16 07:22:10;;;;;;;6.53;4.50;;;20.10;57.70;;;;;;4977697;28;20891;-46
2022/05/16 07:24:39;;;;;;;5.83;4.07;;;20.10;58.00;;;;;;4977253;28;20475;-46
2022/05/16 07:29:52;;;;;;;7.93;4.63;;;20.20;58.70;;;;;;4976316;28;20538;-46
2022/05/16 07:32:19;;;;;;;5.70;4.37;;;20.20;58.50;;;;;;4981226;28;20551;-46
2022/05/16 07:34:47;;;;;;;8.13;4.77;;;20.20;58.30;;;;;;4977652;28;20827;-46
2022/05/16 07:37:14;;;;;;;8.53;4.97;;;20.30;58.50;;;;;;4961815;28;20504;-46
2022/05/16 07:39:41;;;;;;;7.33;4.60;;;20.30;58.70;;;;;;4960355;28;20462;-46
2022/05/16 07:42:09;;;;;;;8.90;4.77;;;20.40;58.50;;;;;;4977676;28;20488;-46
2022/05/16 07:44:38;;;;;;;7.30;4.47;;;20.50;58.30;;;;;;4963958;28;20560;-46
2022/05/16 07:47:06;;;;;;;5.07;4.57;;;20.70;58.50;;;;;;4974614;28;20549;-46
2022/05/16 07:49:33;;;;;;;9.23;4.90;;;20.80;58.30;;;;;;4978591;28;20454;-47
2022/05/16 07:52:00;;;;;;;6.27;4.60;;;20.90;58.70;;;;;;4979680;28;20458;-46
2022/05/16 07:54:27;;;;;;;9.97;5.60;;;21.00;58.80;;;;;;4978376;28;20465;-46
2022/05/16 07:56:54;;;;;;;9.13;5.10;;;21.00;58.90;;;;;;4963333;28;20856;-46
2022/05/16 07:59:21;;;;;;;10.47;4.77;;;21.10;59.20;;;;;;4978856;28;20477;-46
2022/05/16 08:01:47;;;;;;;4.77;4.23;;;21.20;58.90;;;;;;4979651;28;20528;-47
2022/05/16 08:04:14;;;;;;;6.27;4.90;;;21.40;58.80;;;;;;4967392;28;20544;-46
2022/05/16 08:06:41;;;;;;;4.90;4.50;;;21.60;59.00;;;;;;4980256;28;20573;-46
2022/05/16 08:11:55;;;;;;;7.70;4.73;;;21.70;59.30;;;;;;4951205;28;21032;-47
2022/05/16 08:14:22;;;;;;;6.43;5.10;;;21.80;59.50;;;;;;4970207;28;20460;-46
2022/05/16 08:16:49;;;;;;;8.23;4.90;;;22.00;59.80;;;;;;4979523;28;21078;-46
2022/05/16 08:19:16;;;;;;;5.80;4.47;;;22.20;59.00;;;;;;4977697;28;20450;-46
2022/05/16 08:21:43;;;;;;;5.53;4.70;;;22.30;57.80;;;;;;4981180;28;20550;-46
2022/05/16 08:24:11;;;;;;;5.40;4.37;;;22.40;57.00;;;;;;4977723;28;21049;-46
2022/05/16 08:26:38;;;;;;;9.63;4.37;;;22.50;55.90;;;;;;4958751;28;20918;-46
2022/05/16 08:29:05;;;;;;;10.83;4.50;;;22.60;56.30;;;;;;4974108;28;20558;-46
2022/05/16 08:31:32;;;;;;;7.97;5.07;;;22.70;55.90;;;;;;4969924;28;20491;-47
2022/05/16 08:34:00;;;;;;;6.00;4.70;;;22.90;55.90;;;;;;4980346;28;20475;-47
2022/05/16 08:42:02;;;;;;;6.80;4.37;;;23.70;54.50;;;;;;4977741;28;20471;-47
2022/05/16 08:44:44;;;;;;;5.97;4.60;;;24.00;54.10;;;;;;4981794;28;20524;-47
2022/05/16 08:47:50;;;;;;;4.23;3.70;;;24.20;54.10;;;;;;4957713;28;20979;-46
2022/05/16 08:50:28;;;;;;;7.00;4.27;;;24.40;53.70;;;;;;4980804;28;20460;-46
2022/05/16 08:53:06;;;;;;;4.90;4.40;;;24.70;53.10;;;;;;4978285;28;20472;-47
2022/05/16 08:55:47;;;;;;;4.30;3.83;;;25.00;53.00;;;;;;4962807;28;20985;-47
2022/05/16 08:58:24;;;;;;;8.43;5.17;;;25.20;52.80;;;;;;4970475;28;20888;-47
2022/05/16 09:01:10;;;;;;;6.03;3.90;;;25.50;51.90;;;;;;4975254;28;21037;-47
2022/05/16 09:03:46;;;;;;;5.97;4.77;;;25.60;52.20;;;;;;4981528;28;20558;-47
2022/05/16 09:06:35;;;;;;;9.90;4.40;;;25.80;51.50;;;;;;4970186;28;20466;-47
2022/05/16 09:09:22;;;;;;;5.77;4.43;;;25.90;51.20;;;;;;4957698;28;20454;-48
2022/05/16 09:12:27;;;;;;;6.30;3.87;;;26.00;50.80;;;;;;4980194;28;20572;-48
2022/05/16 09:15:21;;;;;;;7.37;4.80;;;26.30;50.80;;;;;;4973805;28;20843;-47
2022/05/16 09:18:06;;;;;;;9.13;5.30;;;26.50;49.80;;;;;;4976733;28;21021;-47
2022/05/16 09:20:49;;;;;;;8.00;4.57;;;26.60;49.90;;;;;;4977797;28;20528;-47
2022/05/16 09:23:30;;;;;;;5.47;4.63;;;26.80;49.30;;;;;;4979809;28;21069;-47
2022/05/16 09:26:11;;;;;;;5.40;4.53;;;26.90;49.20;;;;;;4975937;28;20467;-47
2022/05/16 09:28:47;;;;;;;8.80;4.20;;;27.10;49.20;;;;;;4977740;28;20492;-48
2022/05/16 09:31:20;;;;;;;4.83;4.20;;;27.30;48.70;;;;;;4981559;28;20469;-47
2022/05/16 09:33:51;;;;;;;6.20;4.20;;;27.50;48.40;;;;;;4965729;28;20464;-47
2022/05/16 09:36:25;;;;;;;6.97;4.30;;;27.70;48.10;;;;;;4980617;28;20580;-47
2022/05/16 09:38:52;;;;;;;6.23;4.27;;;27.90;47.90;;;;;;4983014;28;20824;-47
2022/05/16 09:41:21;;;;;;;7.97;4.83;;;27.90;48.10;;;;;;4979621;28;20459;-47
2022/05/16 09:44:12;;;;;;;6.20;4.50;;;28.20;47.80;;;;;;4977321;28;20209;-47
2022/05/16 09:46:42;;;;;;;5.10;4.60;;;28.40;47.60;;;;;;4980246;28;20324;-47
2022/05/16 09:49:27;;;;;;;9.40;5.10;;;28.70;47.00;;;;;;4981113;28;20214;-47
2022/05/16 09:51:55;;;;;;;7.10;4.33;;;28.90;46.80;;;;;;4965841;28;20213;-48
2022/05/16 09:54:22;;;;;;;7.97;4.35;;;29.20;46.30;;;;;;4980348;28;20206;-48
2022/05/16 09:57:21;;;;;;;5.32;4.18;;;29.50;46.00;;;;;;4979003;28;20260;-47
2022/05/16 10:00:00;;;;;;;4.88;4.32;;;29.70;46.20;;;;;;4978797;28;20214;-47
2022/05/16 10:02:30;;;;;;;5.32;4.60;;;29.80;46.00;;;;;;4979673;28;20217;-47
2022/05/16 10:05:17;;;;;;;5.32;4.90;;;30.00;45.80;;;;;;4979230;28;20293;-47
2022/05/16 10:07:47;;;;;;;5.43;4.72;;;30.20;45.40;;;;;;4959583;28;20210;-47
2022/05/16 10:10:21;;;;;;;5.97;4.60;;;30.30;45.40;;;;;;4980539;28;20296;-47
2022/05/16 10:12:50;;;;;;;5.05;4.55;;;30.40;45.10;;;;;;4976774;28;20632;-47
2022/05/16 10:15:17;;;;;;;6.88;4.40;;;30.30;45.30;;;;;;4981409;28;20224;-47
2022/05/16 10:17:46;;;;;;;6.28;3.90;;;30.20;45.40;;;;;;4981750;28;20238;-47
2022/05/16 10:20:21;;;;;;;9.55;5.22;;;30.00;45.80;;;;;;4965387;28;20663;-47
2022/05/16 10:22:57;;;;;;;5.97;4.90;;;29.70;46.10;;;;;;4982622;28;20259;-46
2022/05/16 10:25:38;;;;;;;6.90;4.13;;;29.20;47.00;;;;;;4979968;28;20215;-46
2022/05/16 10:28:11;;;;;;;6.77;4.73;;;28.80;48.00;;;;;;4977739;28;20635;-46
2022/05/16 10:33:28;;;;;;;5.47;4.90;;;28.30;48.60;;;;;;4981162;28;20201;-47
2022/05/16 10:36:05;;;;;;;8.37;4.70;;;28.10;49.00;;;;;;4973981;28;21120;-46
2022/05/16 10:38:52;;;;;;;7.37;5.40;;;28.00;50.10;;;;;;4974725;28;20271;-47
2022/05/16 10:41:29;;;;;;;7.10;4.50;;;27.90;50.00;;;;;;4957995;28;20248;-48
2022/05/16 10:44:02;;;;;;;10.20;5.10;;;27.90;50.30;;;;;;4979681;28;20209;-47
2022/05/16 10:46:36;;;;;;;6.80;5.50;;;27.90;50.50;;;;;;4979745;28;20274;-47
2022/05/16 10:49:18;;;;;;;7.27;5.43;;;28.00;50.20;;;;;;4981626;28;20298;-47
2022/05/16 10:52:00;;;;;;;6.97;5.70;;;28.00;50.50;;;;;;4967033;28;20319;-47
2022/05/16 10:54:32;;;;;;;7.90;4.70;;;27.90;50.80;;;;;;4954583;28;20553;-47
2022/05/16 10:57:32;;;;;;;7.60;4.53;;;27.90;51.10;;;;;;4975677;28;20319;-47
2022/05/16 10:59:59;;;;;;;6.77;4.60;;;27.80;50.60;;;;;;4977572;28;20406;-47
2022/05/16 11:02:37;;;;;;;10.67;4.70;;;27.80;51.20;;;;;;4979114;28;20205;-47
2022/05/16 11:05:07;;;;;;;6.47;4.50;;;27.80;52.30;;;;;;4979391;28;20288;-48
2022/05/16 11:08:09;;;;;;;5.53;4.70;;;27.90;51.20;;;;;;4977908;28;20536;-47
2022/05/16 11:10:48;;;;;;;7.40;5.13;;;27.90;51.60;;;;;;4980869;28;20559;-47
2022/05/16 11:13:18;;;;;;;5.80;5.30;;;27.90;51.80;;;;;;4980891;28;20272;-48
2022/05/16 11:15:55;;;;;;;6.33;4.90;;;27.80;51.70;;;;;;4979363;28;20305;-48
2022/05/16 11:19:07;;;;;;;6.23;4.57;;;27.70;51.50;;;;;;4980815;28;20475;-48
2022/05/16 11:21:40;;;;;;;4.93;3.93;;;27.60;52.20;;;;;;4950795;28;20532;-48
2022/05/16 11:24:31;;;;;;;4.63;4.10;;;27.40;52.30;;;;;;4979098;28;20966;-46
2022/05/16 11:27:05;;;;;;;9.43;4.73;;;27.30;53.00;;;;;;4975037;28;20225;-46
2022/05/16 11:29:31;;;;;;;6.43;4.03;;;27.30;53.60;;;;;;4977588;28;20693;-47
2022/05/16 11:31:58;;;;;;;9.10;4.30;;;27.40;53.40;;;;;;4977065;28;20507;-47
2022/05/16 11:34:57;;;;;;;6.20;3.77;;;27.40;53.50;;;;;;4978864;28;20499;-47
2022/05/16 11:37:39;;;;;;;4.50;3.97;;;27.50;52.70;;;;;;4975639;28;20233;-47
2022/05/16 11:40:24;;;;;;;4.93;3.93;;;27.40;52.90;;;;;;4977365;28;20468;-47
2022/05/16 11:43:16;;;;;;;9.60;4.80;;;27.30;53.20;;;;;;4964756;28;20544;-46
2022/05/16 11:46:09;;;;;;;5.73;3.50;;;27.10;53.50;;;;;;4980066;28;20672;-47
2022/05/16 11:48:49;;;;;;;5.13;3.77;;;27.00;53.30;;;;;;4978349;28;20472;-46
2022/05/16 11:52:00;;;;;;;8.67;4.60;;;26.80;53.60;;;;;;4977163;28;21116;-47
2022/05/16 11:54:32;;;;;;;4.00;3.60;;;26.60;54.30;;;;;;4961136;28;21049;-47
2022/05/16 12:02:41;;;;;;;9.33;3.70;;;26.40;54.80;;;;;;4975321;28;20502;-47
2022/05/16 12:05:20;;;;;;;3.90;3.00;;;26.30;53.20;;;;;;4975813;28;20515;-47
2022/05/16 12:08:08;;;;;;;5.10;3.27;;;26.30;53.50;;;;;;4976309;28;20464;-47
2022/05/16 12:10:52;;;;;;;7.53;2.93;;;26.30;53.40;;;;;;4982594;28;20464;-47
2022/05/16 12:13:28;;;;;;;9.17;2.73;;;26.30;54.30;;;;;;4977140;28;20761;-47
2022/05/16 12:16:28;;;;;;;7.60;3.17;;;26.30;52.90;;;;;;4975678;28;20739;-47
2022/05/16 12:19:16;;;;;;;5.17;2.20;;;26.30;52.90;;;;;;4979126;28;20458;-47
2022/05/16 12:21:57;;;;;;;4.03;2.40;;;26.40;52.90;;;;;;4977754;28;20575;-47
2022/05/16 12:24:27;;;;;;;10.50;2.23;;;26.40;52.60;;;;;;4966851;28;20490;-47
2022/05/16 12:27:05;;;;;;;2.77;2.03;;;26.50;51.80;;;;;;4979257;28;20970;-47
2022/05/16 12:29:41;;;;;;;6.63;1.90;;;26.50;51.50;;;;;;4983800;28;20961;-47
2022/05/16 12:32:08;;;;;;;5.40;2.73;;;26.60;51.50;;;;;;4981691;28;20577;-47
2022/05/16 12:34:38;;;;;;;3.10;1.90;;;26.60;51.10;;;;;;4981062;28;20471;-47
2022/05/16 12:37:09;;;;;;;3.53;2.33;;;26.60;51.90;;;;;;4983443;28;20499;-47
2022/05/16 12:40:03;;;;;;;9.53;2.50;;;26.60;51.70;;;;;;4980030;28;20453;-47
2022/05/16 12:42:56;;;;;;;3.57;2.30;;;26.70;51.90;;;;;;4985442;28;21014;-46
2022/05/16 12:45:54;;;;;;;5.17;2.50;;;26.80;51.40;;;;;;4984214;28;20468;-46
2022/05/16 12:48:26;;;;;;;6.23;2.27;;;26.80;51.10;;;;;;4968582;28;20472;-47
2022/05/16 12:51:31;;;;;;;9.53;2.23;;;26.80;51.60;;;;;;4979488;28;20861;-47
2022/05/16 12:54:09;;;;;;;3.13;2.60;;;26.80;51.20;;;;;;4963388;28;20492;-47
2022/05/16 12:56:51;;;;;;;5.07;1.83;;;26.80;51.40;;;;;;4963406;28;21113;-47
2022/05/16 12:59:41;;;;;;;6.33;2.23;;;26.80;50.70;;;;;;4984314;28;20898;-47
2022/05/16 13:02:29;;;;;;;5.13;2.70;;;26.70;51.00;;;;;;4979004;28;21452;-47
2022/05/16 13:05:15;;;;;;;5.73;1.93;;;26.70;51.50;;;;;;4985430;28;20463;-47
2022/05/16 13:08:19;;;;;;;5.03;2.30;;;26.80;51.50;;;;;;4978112;28;20554;-47
2022/05/16 13:11:08;;;;;;;5.73;2.07;;;26.70;51.60;;;;;;4983122;28;21063;-47
2022/05/16 13:13:56;;;;;;;5.23;2.70;;;26.80;51.80;;;;;;4979861;28;20500;-47
2022/05/16 13:16:30;;;;;;;6.13;2.80;;;26.70;50.90;;;;;;4983319;28;20492;-47
2022/05/16 13:19:11;;;;;;;4.40;2.70;;;26.60;51.10;;;;;;4985633;28;20963;-47
2022/05/16 13:22:00;;;;;;;7.63;2.50;;;26.50;51.00;;;;;;4979254;28;20547;-47
2022/05/16 13:24:27;;;;;;;8.43;2.70;;;26.40;50.70;;;;;;4984709;28;20466;-47
2022/05/16 13:30:06;;;;;;;2.13;1.80;;;26.30;51.30;;;;;;4979613;28;20460;-46
2022/05/16 13:32:33;;;;;;;5.93;1.90;;;26.30;51.20;;;;;;4965667;28;20471;-47
2022/05/16 13:35:02;;;;;;;6.23;2.40;;;26.20;51.60;;;;;;4979754;28;20457;-46
2022/05/16 13:37:49;;;;;;;6.50;2.57;;;26.10;51.80;;;;;;4984464;28;21039;-46
2022/05/16 13:40:39;;;;;;;5.90;3.70;;;26.00;52.20;;;;;;4979947;28;20555;-47
2022/05/16 13:43:24;;;;;;;5.93;2.87;;;26.00;52.80;;;;;;4981734;28;20452;-46
2022/05/16 13:46:08;;;;;;;4.93;2.90;;;25.90;53.50;;;;;;4979963;28;20555;-47
2022/05/16 13:48:36;;;;;;;3.77;2.17;;;25.90;53.10;;;;;;4980612;28;20508;-47
2022/05/16 13:51:05;;;;;;;3.10;2.07;;;25.90;53.20;;;;;;4967699;28;20535;-47
2022/05/16 13:53:34;;;;;;;8.33;2.50;;;25.90;53.90;;;;;;4980712;28;20492;-47